• Join FlightAware (Why Join?)
  • Login
  • US Flag 
09:09AM EDT


 

Airport Tracker/Info


-or-


 

Live Flight TrackerFlight Track Log ✈ N88JA ✈ 27-Jun-2013 ✈ KCLE - KDAY

Flight Track Log - Related Links

Times and Time Zones

All times are in EDT time to prevent confusion due to time zone crossing. See the N88JA flight status page for this flight to view local times or setup timezone preferences in your user account.

Time Position Orientation Groundspeed Altitude Reporting Facility
EDT Latitude Longitude Course Direction KTS MPH feet Rate Location/Type
11:55PM 41.2472 -82.2594 225° Southwest 104 120 4,500  Level Cleveland Center
11:56PM 41.2261 -82.2864 224° Southwest 104 120 4,500  Level Cleveland Center
11:57PM 41.2047 -82.3108 221° Southwest 109 125 4,500  Level Cleveland Center
11:58PM 41.1856 -82.3322 220° Southwest 109 125 4,500  Level Cleveland Center
11:59PM 41.1644 -82.3567 221° Southwest 109 125 4,600  Climbing Cleveland Center
12:00AM 41.1433 -82.3836 224° Southwest 109 125 4,600 -60 Level Cleveland Center
12:01AM 40.8295 -82.6308 225° Southwest  Level Estimated
12:01AM 41.1219 -82.4050 217° Southwest 109 125 4,500  Level Cleveland Center
12:02AM 41.1008 -82.4292 221° Southwest 109 125 4,500  Level Cleveland Center
12:03AM 41.0775 -82.4533 218° Southwest 109 125 4,500  Level Cleveland Center
12:04AM 41.0561 -82.4775 220° Southwest 109 125 4,500  Level Cleveland Center
12:05AM 41.0350 -82.5044 224° Southwest 109 125 4,500  Level Cleveland Center
12:06AM 41.0136 -82.5342 226° Southwest 109 125 4,600  Climbing Cleveland Center
12:07AM 40.9983 -82.5639 236° Southwest 102 117 4,500 -60 Descending Cleveland Center
12:08AM 40.9792 -82.5908 227° Southwest 102 117 4,500  Level Cleveland Center
12:09AM 40.9619 -82.6206 233° Southwest 102 117 4,500  Level Cleveland Center
12:10AM 40.9447 -82.6503 233° Southwest 107 123 4,600  Climbing Cleveland Center
12:11AM 40.9256 -82.6772 227° Southwest 107 123 4,600  Level Cleveland Center
12:12AM 40.9064 -82.7042 227° Southwest 107 123 4,600  Level Cleveland Center
12:13AM 40.8828 -82.7308 220° Southwest 107 123 4,600  Level Cleveland Center
12:14AM 40.8742 -82.7442 230° Southwest 104 120 4,600  Level Indianapolis Center
12:15AM 40.8528 -82.7717 224° Southwest 106 122 4,600  Level Indianapolis Center
12:16AM 40.8306 -82.7961 220° Southwest 105 121 4,600 -60 Level Indianapolis Center
12:17AM 40.8117 -82.8236 228° Southwest 101 116 4,500  Descending Indianapolis Center
12:18AM 40.7953 -82.8522 233° Southwest 98 113 4,600  Climbing Indianapolis Center
12:19AM 40.7839 -82.8844 245° Southwest 97 112 4,600  Level Indianapolis Center
12:20AM 40.7775 -82.9200 257° West 98 113 4,600  Level Indianapolis Center
12:21AM 40.7808 -82.9519 278° West 91 105 4,600 -60 Level Indianapolis Center
12:22AM 40.7819 -82.9842 273° West 88 101 4,500 -60 Descending Indianapolis Center
12:23AM 40.7872 -83.0175 282° West 90 104 4,500  Level Indianapolis Center
12:24AM 40.7886 -83.0508 273° West 91 105 4,500  Level Indianapolis Center
12:25AM 40.7819 -83.0881 257° West 90 104 4,600  Climbing Indianapolis Center
12:26AM 40.7806 -83.1189 267° West 86 99 4,600  Level Indianapolis Center
12:27AM 40.7850 -83.1508 280° West 86 99 4,700  Climbing Indianapolis Center
12:28AM 40.7856 -83.1839 271° West 88 101 4,600 -60 Descending Indianapolis Center
12:29AM 40.7853 -83.2172 269° West 90 104 4,600  Level Indianapolis Center
12:30AM 40.7819 -83.2517 263° West 94 108 4,600  Level Indianapolis Center
12:31AM 40.7786 -83.2811 262° West 87 100 4,600 -60 Level Indianapolis Center
12:32AM 40.7789 -83.3147 271° West 90 104 4,500 -60 Descending Indianapolis Center
12:33AM 40.7744 -83.3478 260° West 91 105 4,500  Level Indianapolis Center
12:34AM 40.7700 -83.3781 259° West 87 100 4,500  Level Indianapolis Center
12:35AM 40.7667 -83.4083 262° West 83 96 4,500  Level Indianapolis Center
12:36AM 40.7642 -83.4403 264° West 85 98 4,600  Climbing Indianapolis Center
12:37AM 40.7581 -83.4722 256° West 88 101 4,600 -60 Level Indianapolis Center
12:38AM 40.7522 -83.5050 257° West 90 104 4,500 -60 Descending Indianapolis Center
12:39AM 40.7497 -83.5389 264° West 92 106 4,500  Level Indianapolis Center
12:41AM 40.7408 -83.5700 249° West 91 105 4,500  Level Indianapolis Center
12:42AM 40.7325 -83.6014 251° West 90 104 4,500  Level Indianapolis Center
12:43AM 40.7233 -83.6353 250° West 96 110 4,600  Climbing Indianapolis Center
12:44AM 40.7128 -83.6706 248° West 90 104 4,600 -60 Level Indianapolis Center
12:45AM 40.7025 -83.7039 248° West 95 109 4,500 -60 Descending Indianapolis Center
12:46AM 40.6956 -83.7353 254° West 91 105 4,500  Level Indianapolis Center
12:47AM 40.6894 -83.7711 257° West 96 110 4,500  Level Indianapolis Center
12:48AM 40.6858 -83.8031 262° West 92 106 4,500  Level Indianapolis Center
12:49AM 40.6800 -83.8361 257° West 91 105 4,500  Level Indianapolis Center
12:50AM 40.6750 -83.8714 259° West 96 110 4,500  Level Indianapolis Center
12:51AM 40.6536 -83.8919 216° Southwest 109 125 4,500  Level Indianapolis Center
12:52AM 40.6239 -83.9178 213° Southwest 106 122 4,500  Level Indianapolis Center
12:53AM 40.6033 -83.9331 209° Southwest 106 122 4,500  Level Indianapolis Center
12:54AM 40.5814 -83.9553 218° Southwest 98 113 4,500  Level Indianapolis Center
12:55AM 40.5544 -83.9703 203° Southwest 106 122 4,500 -60 Level Indianapolis Center
12:56AM 40.5261 -83.9889 207° Southwest 103 119 4,400  Descending Indianapolis Center
12:57AM 40.4997 -83.9981 195° South 99 114 4,500  Climbing Indianapolis Center
12:58AM 40.4731 -84.0125 202° Southwest 102 117 4,500  Level Indianapolis Center
12:59AM 40.4572 -84.0386 231° Southwest 100 115 4,500  Level Indianapolis Center
01:00AM 40.4419 -84.0653 233° Southwest 94 108 4,500  Level Indianapolis Center
01:01AM 40.4247 -84.0947 232° Southwest 92 106 4,500  Level Indianapolis Center
01:02AM 40.4056 -84.1161 220° Southwest 95 109 4,500  Level Indianapolis Center
01:03AM 40.3769 -84.1275 197° South 109 125 4,500  Level Indianapolis Center
01:04AM 40.3531 -84.1342 192° South 105 121 4,500 -60 Level Indianapolis Center
01:05AM 40.3211 -84.1422 191° South 103 119 4,400  Descending Indianapolis Center
01:06AM 40.2944 -84.1511 194° South 100 115 4,500  Climbing Indianapolis Center
01:07AM 40.2642 -84.1594 192° South 100 115 4,500  Level Indianapolis Center
01:08AM 40.2400 -84.1689 197° South 101 116 4,500  Level Indianapolis Center
01:09AM 40.2122 -84.1750 190° South 104 120 4,500  Level Indianapolis Center
01:10AM 40.1819 -84.1806 188° South 102 117 4,500  Level Indianapolis Center
01:11AM 40.1542 -84.1864 189° South 103 119 4,500  Level Indianapolis Center
01:12AM 40.1242 -84.1894 184° South 108 124 4,500  Level Indianapolis Center
01:13AM 40.0939 -84.1975 192° South 101 116 4,500  Level Indianapolis Center
01:14AM 40.0664 -84.2008 185° South 98 113 4,600 120 Climbing Indianapolis Center
01:15AM 40.0389 -84.2014 181° South 95 109 4,800 60 Climbing Indianapolis Center
01:16AM 40.0117 -84.1994 177° South 102 117 4,800 -60 Level Indianapolis Center
01:17AM 39.9819 -84.2022 184° South 107 123 4,700 -180 Descending Indianapolis Center
01:18AM 39.9542 -84.2056 185° South 111 128 4,500 -180 Descending Indianapolis Center
01:19AM 39.9222 -84.2106 187° South 113 130 4,400 -120 Descending Indianapolis Center
01:20AM 39.8928 -84.2081 176° South 107 123 4,300 -120 Descending Indianapolis Center
01:21AM 39.8619 -84.2025 172° South 110 127 4,200 -240 Descending Indianapolis Center
01:22AM 39.8244 -84.1986 175° South 118 136 3,900 -300 Descending Indianapolis Center
01:23AM 39.7933 -84.1958 176° South 118 136 3,600 -420 Descending Indianapolis Center
01:24AM 39.7614 -84.1983 183° South 111 128 3,100 -360 Descending Indianapolis Center
01:25AM 39.7319 -84.1986 180° South 112 129 2,900 -60 Descending Indianapolis Center
01:26AM 39.7069 -84.1750 144° Southeast 111 128 3,000 -240 Climbing Indianapolis Center
01:27AM 39.6775 -84.1764 182° South 108 124 2,500 -600 Descending Indianapolis Center
01:28AM 39.6525 -84.1903 203° Southwest 103 119 1,800 -480 Descending Indianapolis Center
01:29AM 39.6281 -84.2028 201° Southwest 99 114 1,600 -240 Descending Indianapolis Center